Time;durP1;ratioP1;P1;durP2;ratioP2;P2;SDS_P1;SDS_P2;PMS_P1;PMS_P2;Temp;Humidity;BMP_temperature;BMP_pressure;BME280_temperature;BME280_humidity;BME280_pressure;Samples;Min_cycle;Max_cycle;Signal;HPM_P1;HPM_P2
2024/02/07 00:00:34;;;;;;;;;;;;;;;2.60;67.85;100307.70;107670;1251;97924;-63
2024/02/07 00:03:22;;;;;;;;;;;;;;;2.57;67.46;100303.29;107513;1254;113712;-63
2024/02/07 00:05:51;;;;;;;;;;;;;;;2.52;67.13;100310.34;107664;1251;108633;-62
2024/02/07 00:08:19;;;;;;;;;;;;;;;2.47;67.32;100311.55;107631;1251;108204;-64
2024/02/07 00:10:48;;;;;;;;;;;;;;;2.42;67.36;100315.39;107596;1253;97870;-63
2024/02/07 00:13:16;;;;;;;;;;;;;;;2.34;67.65;100312.86;107681;1251;97851;-62
2024/02/07 00:15:45;;;;;;;;;;;;;;;2.27;67.45;100313.30;107603;1251;112105;-63
2024/02/07 00:18:13;;;;;;;;;;;;;;;2.23;67.39;100314.98;107615;1251;108405;-62
2024/02/07 00:20:42;;;;;;;;;;;;;;;2.18;67.44;100302.15;107602;1251;108235;-62
2024/02/07 00:23:10;;;;;;;;;;;;;;;2.15;67.68;100303.74;107645;1251;97879;-63
2024/02/07 00:25:38;;;;;;;;;;;;;;;2.12;67.25;100302.20;107620;1251;97832;-63
2024/02/07 00:28:07;;;;;;;;;;;;;;;2.08;67.65;100294.79;107627;1251;112339;-63
2024/02/07 00:30:35;;;;;;;;;;;;;;;2.06;68.02;100286.98;107633;1255;107380;-64
2024/02/07 00:33:08;;;;;;;;;;;;;;;1.99;67.72;100290.39;107674;1250;108768;-63
2024/02/07 00:35:36;;;;;;;;;;;;;;;1.96;67.78;100294.66;107627;1251;97883;-63
2024/02/07 00:38:04;;;;;;;;;;;;;;;1.97;67.95;100293.88;107682;1251;97824;-66
2024/02/07 00:40:33;;;;;;;;;;;;;;;1.95;68.04;100292.77;107593;1254;111417;-63
2024/02/07 00:43:03;;;;;;;;;;;;;;;1.93;67.84;100281.94;107593;1254;108216;-63
2024/02/07 00:45:32;;;;;;;;;;;;;;;1.92;68.00;100281.62;107579;1251;108084;-63
2024/02/07 00:48:00;;;;;;;;;;;;;;;1.92;67.88;100282.68;107597;1254;97850;-62
2024/02/07 00:50:28;;;;;;;;;;;;;;;1.91;67.82;100279.22;107667;1251;97911;-62
2024/02/07 00:52:57;;;;;;;;;;;;;;;1.85;67.74;100273.19;107645;1256;111650;-62
2024/02/07 00:55:25;;;;;;;;;;;;;;;1.83;68.02;100271.05;107562;1251;107762;-62
2024/02/07 00:57:55;;;;;;;;;;;;;;;1.80;67.92;100263.42;107631;1251;106877;-61
2024/02/07 01:00:24;;;;;;;;;;;;;;;1.77;68.05;100260.39;107601;1254;97876;-63
2024/02/07 01:02:52;;;;;;;;;;;;;;;1.76;68.19;100262.06;107566;1251;98407;-63
2024/02/07 01:05:21;;;;;;;;;;;;;;;1.74;68.18;100250.35;107545;1251;112171;-64
2024/02/07 01:07:50;;;;;;;;;;;;;;;1.77;68.43;100245.06;107636;1251;108287;-64
2024/02/07 01:10:18;;;;;;;;;;;;;;;1.76;68.18;100238.35;107571;1251;107010;-64
2024/02/07 01:12:47;;;;;;;;;;;;;;;1.76;68.41;100243.13;107579;1254;97914;-63
2024/02/07 01:15:15;;;;;;;;;;;;;;;1.72;68.22;100243.58;107599;1251;97857;-63
2024/02/07 01:17:43;;;;;;;;;;;;;;;1.65;68.24;100239.20;107639;1251;111838;-63
2024/02/07 01:20:11;;;;;;;;;;;;;;;1.62;67.88;100243.45;107593;1254;106794;-63
2024/02/07 01:22:40;;;;;;;;;;;;;;;1.61;68.05;100243.34;107571;1251;108242;-63
2024/02/07 01:25:08;;;;;;;;;;;;;;;1.59;68.25;100242.23;107589;1251;97819;-63
2024/02/07 01:27:37;;;;;;;;;;;;;;;1.55;68.28;100244.39;107643;1251;97847;-64
2024/02/07 01:30:11;;;;;;;;;;;;;;;1.54;68.26;100246.58;107615;1251;111320;-63
2024/02/07 01:32:43;;;;;;;;;;;;;;;1.52;68.19;100238.03;107634;1251;108278;-64
2024/02/07 01:35:12;;;;;;;;;;;;;;;1.51;68.34;100234.71;107634;1252;108116;-65
2024/02/07 01:37:40;;;;;;;;;;;;;;;1.46;67.95;100239.42;107579;1254;97832;-64
2024/02/07 01:40:11;;;;;;;;;;;;;;;1.37;68.05;100231.84;107649;1251;97906;-63
2024/02/07 01:42:40;;;;;;;;;;;;;;;1.28;68.38;100232.91;107544;1254;110749;-64
2024/02/07 01:45:20;;;;;;;;;;;;;;;1.25;68.31;100233.77;107632;1251;109582;-64
2024/02/07 01:47:49;;;;;;;;;;;;;;;1.23;68.41;100226.63;107598;1251;107109;-64
2024/02/07 01:50:18;;;;;;;;;;;;;;;1.19;68.39;100223.69;107602;1253;97832;-64
2024/02/07 01:52:47;;;;;;;;;;;;;;;1.16;68.51;100216.60;107497;1254;97717;-64
2024/02/07 01:55:17;;;;;;;;;;;;;;;1.16;68.39;100218.95;107618;1251;111948;-63
2024/02/07 01:57:47;;;;;;;;;;;;;;;1.16;68.61;100226.20;107563;1251;107031;-65
2024/02/07 02:00:15;;;;;;;;;;;;;;;1.12;68.83;100224.27;107585;1251;108526;-65
2024/02/07 02:02:46;;;;;;;;;;;;;;;1.14;69.16;100219.07;107638;1251;97828;-63
2024/02/07 02:05:16;;;;;;;;;;;;;;;1.16;69.51;100216.10;107632;1251;97818;-63
2024/02/07 02:07:45;;;;;;;;;;;;;;;1.18;69.60;100204.69;107625;1251;111046;-63
2024/02/07 02:10:14;;;;;;;;;;;;;;;1.18;69.76;100207.49;107632;1251;108495;-63
2024/02/07 02:12:43;;;;;;;;;;;;;;;1.19;69.62;100202.65;107614;1254;108727;-63
2024/02/07 02:15:11;;;;;;;;;;;;;;;1.20;69.65;100203.31;107538;1251;97723;-61
2024/02/07 02:17:40;;;;;;;;;;;;;;;1.14;69.16;100199.06;107664;1251;97733;-62
2024/02/07 02:20:09;;;;;;;;;;;;;;;1.11;69.08;100196.77;107564;1251;111911;-62
2024/02/07 02:22:45;;;;;;;;;;;;;;;1.08;69.15;100196.56;107698;1251;108569;-63
2024/02/07 02:25:34;;;;;;;;;;;;;;;1.09;69.26;100196.02;107509;1251;107948;-64
2024/02/07 02:28:17;;;;;;;;;;;;;;;1.05;69.22;100195.01;107540;1255;97920;-64
2024/02/07 02:30:50;;;;;;;;;;;;;;;0.96;69.04;100197.27;107643;1251;97947;-64
2024/02/07 02:33:21;;;;;;;;;;;;;;;0.89;68.94;100193.64;107559;1255;111048;-64
2024/02/07 02:35:50;;;;;;;;;;;;;;;0.86;68.95;100191.52;107616;1251;108211;-63
2024/02/07 02:38:19;;;;;;;;;;;;;;;0.84;69.04;100181.57;107627;1251;107174;-61
2024/02/07 02:40:48;;;;;;;;;;;;;;;0.84;69.11;100178.23;107620;1251;97840;-61
2024/02/07 02:43:17;;;;;;;;;;;;;;;0.84;69.21;100173.78;107582;1254;97825;-63
2024/02/07 02:45:45;;;;;;;;;;;;;;;0.82;69.10;100174.25;107593;1254;111680;-63
2024/02/07 02:48:14;;;;;;;;;;;;;;;0.78;69.00;100174.45;107627;1256;107787;-62
2024/02/07 02:50:42;;;;;;;;;;;;;;;0.72;68.71;100177.09;107608;1251;107500;-62
2024/02/07 02:53:10;;;;;;;;;;;;;;;0.69;68.91;100182.23;107505;1250;97838;-64
2024/02/07 02:55:39;;;;;;;;;;;;;;;0.68;68.96;100179.80;107699;1251;98512;-63
2024/02/07 02:58:09;;;;;;;;;;;;;;;0.69;69.18;100175.19;107624;1251;111918;-63
2024/02/07 03:00:37;;;;;;;;;;;;;;;0.68;69.26;100172.98;107628;1254;108318;-63
2024/02/07 03:03:08;;;;;;;;;;;;;;;0.64;69.22;100165.96;107537;1254;108437;-62
2024/02/07 03:10:40;;;;;;;;;;;;;;;0.56;69.58;100158.23;107662;1251;110705;-63
2024/02/07 03:13:08;;;;;;;;;;;;;;;0.57;69.58;100152.02;107701;1251;108274;-62
2024/02/07 03:15:37;;;;;;;;;;;;;;;0.59;69.66;100145.04;107635;1251;108198;-61
2024/02/07 03:18:05;;;;;;;;;;;;;;;0.59;69.59;100144.66;107605;1251;97827;-61
2024/02/07 03:20:35;;;;;;;;;;;;;;;0.56;69.32;100142.03;107610;1251;97729;-63
2024/02/07 03:23:03;;;;;;;;;;;;;;;0.52;69.65;100145.04;107626;1251;111357;-62
2024/02/07 03:25:33;;;;;;;;;;;;;;;0.47;69.27;100141.11;107624;1251;108845;-63
2024/02/07 03:28:04;;;;;;;;;;;;;;;0.42;69.22;100137.17;107590;1251;108382;-63
2024/02/07 03:30:33;;;;;;;;;;;;;;;0.36;69.43;100133.47;107590;1251;97840;-62
2024/02/07 03:33:01;;;;;;;;;;;;;;;0.35;69.71;100128.90;107592;1252;97830;-63
2024/02/07 03:35:30;;;;;;;;;;;;;;;0.37;69.72;100124.56;107632;1251;112141;-64
2024/02/07 03:37:59;;;;;;;;;;;;;;;0.40;69.84;100123.54;107661;1252;108557;-63
2024/02/07 03:40:27;;;;;;;;;;;;;;;0.42;69.81;100114.24;107531;1251;108378;-62
2024/02/07 03:42:56;;;;;;;;;;;;;;;0.44;69.71;100115.19;107571;1251;99171;-62
2024/02/07 03:45:25;;;;;;;;;;;;;;;0.44;69.63;100119.08;107565;1251;99288;-63
2024/02/07 03:47:53;;;;;;;;;;;;;;;0.42;69.50;100118.81;107562;1251;111411;-63
2024/02/07 03:50:25;;;;;;;;;;;;;;;0.41;69.54;100118.38;107533;1251;107930;-63
2024/02/07 03:52:55;;;;;;;;;;;;;;;0.39;69.91;100113.73;107479;1254;106297;-62
2024/02/07 03:55:23;;;;;;;;;;;;;;;0.39;70.13;100114.08;107535;1256;99182;-62
2024/02/07 03:57:52;;;;;;;;;;;;;;;0.38;70.12;100116.05;107558;1257;99176;-62
2024/02/07 04:00:20;;;;;;;;;;;;;;;0.38;70.20;100112.54;107515;1251;112229;-63
2024/02/07 04:02:48;;;;;;;;;;;;;;;0.36;70.05;100110.49;107532;1251;107831;-63
2024/02/07 04:05:18;;;;;;;;;;;;;;;0.35;70.18;100102.77;107555;1251;107669;-63
2024/02/07 04:07:47;;;;;;;;;;;;;;;0.36;70.06;100106.65;107611;1251;99253;-63
2024/02/07 04:10:18;;;;;;;;;;;;;;;0.35;70.09;100101.60;107592;1254;99732;-63
2024/02/07 05:16:34;;;;;;;;;;;;;;;-0.01;70.57;100082.05;107559;1251;100793;-62
2024/02/07 05:19:02;;;;;;;;;;;;;;;-0.01;70.53;100069.36;107603;1251;99246;-62
2024/02/07 05:21:31;;;;;;;;;;;;;;;-0.02;70.43;100069.77;107584;1251;112458;-62
2024/02/07 05:23:59;;;;;;;;;;;;;;;-0.02;70.49;100064.30;107490;1252;108544;-63
2024/02/07 05:26:30;;;;;;;;;;;;;;;-0.02;70.45;100062.70;107595;1256;108846;-63
2024/02/07 05:28:59;;;;;;;;;;;;;;;-0.03;70.30;100065.40;107621;1250;99182;-62
2024/02/07 05:31:29;;;;;;;;;;;;;;;-0.04;70.50;100057.88;107605;1256;99217;-62
2024/02/07 05:33:57;;;;;;;;;;;;;;;-0.05;70.50;100056.53;107543;1251;113159;-63
2024/02/07 05:36:26;;;;;;;;;;;;;;;-0.08;70.44;100057.26;107566;1254;108086;-64
2024/02/07 05:38:55;;;;;;;;;;;;;;;-0.12;70.40;100060.79;107632;1255;108260;-65
2024/02/07 05:41:24;;;;;;;;;;;;;;;-0.12;70.46;100059.39;107467;1250;99265;-64
2024/02/07 05:43:52;;;;;;;;;;;;;;;-0.12;70.56;100063.26;107495;1251;99165;-63
2024/02/07 05:46:20;;;;;;;;;;;;;;;-0.12;70.29;100059.92;107555;1254;112280;-62
2024/02/07 05:48:49;;;;;;;;;;;;;;;-0.09;70.91;100062.20;107617;1252;108435;-62
2024/02/07 05:51:20;;;;;;;;;;;;;;;-0.08;70.72;100060.39;107533;1251;108098;-62
2024/02/07 05:53:48;;;;;;;;;;;;;;;-0.05;70.83;100058.83;107537;1256;99307;-62
2024/02/07 05:56:16;;;;;;;;;;;;;;;-0.05;70.85;100055.09;107474;1255;99198;-62
2024/02/07 05:58:47;;;;;;;;;;;;;;;-0.06;70.78;100056.61;107411;1251;112720;-63
2024/02/07 06:01:15;;;;;;;;;;;;;;;-0.06;70.80;100060.45;107567;1252;107277;-63
2024/02/07 06:03:50;;;;;;;;;;;;;;;-0.04;70.66;100064.42;107425;1253;107904;-65
2024/02/07 06:06:19;;;;;;;;;;;;;;;-0.01;70.68;100070.60;107457;1256;99310;-63
2024/02/07 06:08:49;;;;;;;;;;;;;;;0.00;70.93;100070.89;107439;1255;99059;-62
2024/02/07 06:11:17;;;;;;;;;;;;;;;0.06;71.21;100077.45;107451;1255;113131;-63
2024/02/07 06:13:45;;;;;;;;;;;;;;;0.09;71.08;100076.73;107439;1256;107826;-64
2024/02/07 06:16:13;;;;;;;;;;;;;;;0.13;71.16;100073.33;107432;1255;107660;-63
2024/02/07 06:18:41;;;;;;;;;;;;;;;0.18;71.22;100069.52;107461;1251;99204;-63
2024/02/07 06:21:10;;;;;;;;;;;;;;;0.24;71.25;100064.98;107483;1255;99210;-63
2024/02/07 06:23:38;;;;;;;;;;;;;;;0.30;71.51;100069.36;107441;1257;114569;-61
2024/02/07 06:26:06;;;;;;;;;;;;;;;0.37;71.30;100065.84;107534;1251;108575;-62
2024/02/07 06:28:34;;;;;;;;;;;;;;;0.44;71.48;100070.92;107492;1256;107547;-62
2024/02/07 06:31:03;;;;;;;;;;;;;;;0.50;71.73;100067.18;107529;1251;99092;-63
2024/02/07 06:33:31;;;;;;;;;;;;;;;0.64;71.61;100067.28;107580;1251;99202;-63
2024/02/07 06:36:00;;;;;;;;;;;;;;;0.78;71.86;100063.29;107559;1251;113710;-65
2024/02/07 06:38:28;;;;;;;;;;;;;;;0.90;71.67;100061.88;107677;1251;108022;-62
2024/02/07 06:40:56;;;;;;;;;;;;;;;0.98;71.56;100061.56;107573;1253;108501;-63
2024/02/07 06:43:24;;;;;;;;;;;;;;;1.04;71.72;100062.26;107530;1255;99198;-63
2024/02/07 06:45:58;;;;;;;;;;;;;;;1.09;72.27;100061.10;107554;1251;99287;-65
2024/02/07 06:48:26;;;;;;;;;;;;;;;1.12;72.45;100060.91;107544;1251;113780;-63
2024/02/07 06:50:54;;;;;;;;;;;;;;;1.15;73.06;100064.09;107593;1251;108971;-62
2024/02/07 06:53:23;;;;;;;;;;;;;;;1.18;73.16;100064.93;107536;1254;108067;-61
2024/02/07 06:55:53;;;;;;;;;;;;;;;1.22;73.28;100059.94;107583;1251;99201;-62
2024/02/07 06:58:29;;;;;;;;;;;;;;;1.27;73.48;100063.20;107547;1251;99096;-62
2024/02/07 07:00:58;;;;;;;;;;;;;;;1.32;73.62;100062.71;107561;1253;113378;-61
2024/02/07 07:03:26;;;;;;;;;;;;;;;1.38;73.72;100064.61;107575;1251;107716;-63
2024/02/07 07:05:56;;;;;;;;;;;;;;;1.47;73.60;100063.21;107568;1251;108470;-63
2024/02/07 07:08:24;;;;;;;;;;;;;;;1.56;73.83;100064.78;107597;1251;99189;-63
2024/02/07 07:10:52;;;;;;;;;;;;;;;1.68;73.71;100058.92;107625;1251;99169;-63
2024/02/07 07:13:20;;;;;;;;;;;;;;;1.81;73.65;100063.58;107590;1251;111756;-63
2024/02/07 07:15:49;;;;;;;;;;;;;;;1.90;73.87;100067.73;107508;1253;108109;-63
2024/02/07 07:18:17;;;;;;;;;;;;;;;1.99;73.75;100066.13;107512;1254;107450;-63
2024/02/07 07:20:45;;;;;;;;;;;;;;;2.10;73.55;100067.05;107595;1255;99189;-62
2024/02/07 07:23:13;;;;;;;;;;;;;;;2.19;73.53;100068.21;107576;1251;99265;-62
2024/02/07 07:25:43;;;;;;;;;;;;;;;2.28;73.16;100068.14;107572;1251;112957;-64
2024/02/07 07:28:12;;;;;;;;;;;;;;;2.39;73.39;100067.84;107602;1251;107940;-64
2024/02/07 07:30:41;;;;;;;;;;;;;;;2.50;73.44;100066.39;107585;1251;108275;-63
2024/02/07 07:33:09;;;;;;;;;;;;;;;2.58;73.44;100065.52;107566;1251;99198;-63
2024/02/07 07:35:38;;;;;;;;;;;;;;;2.65;73.39;100063.60;107668;1255;99099;-64
2024/02/07 07:38:08;;;;;;;;;;;;;;;2.75;73.47;100056.42;107508;1254;112463;-65
2024/02/07 07:40:41;;;;;;;;;;;;;;;2.84;73.19;100053.84;107593;1251;108515;-62
2024/02/07 07:43:10;;;;;;;;;;;;;;;2.93;73.43;100048.45;107545;1251;106673;-63
2024/02/07 07:45:38;;;;;;;;;;;;;;;3.04;73.46;100045.91;107567;1251;99067;-63
2024/02/07 07:48:07;;;;;;;;;;;;;;;3.19;73.51;100047.91;107621;1250;99281;-63
2024/02/07 07:50:35;;;;;;;;;;;;;;;3.34;73.33;100044.78;107554;1251;113308;-64
2024/02/07 07:53:03;;;;;;;;;;;;;;;3.49;73.41;100044.08;107633;1254;107867;-64
2024/02/07 07:55:32;;;;;;;;;;;;;;;3.62;73.25;100042.45;107564;1254;108252;-63
2024/02/07 07:58:00;;;;;;;;;;;;;;;3.73;73.19;100040.63;107573;1251;99194;-62
2024/02/07 08:00:28;;;;;;;;;;;;;;;3.85;73.06;100042.79;107531;1251;99163;-62
2024/02/07 08:02:56;;;;;;;;;;;;;;;3.97;73.20;100044.61;107558;1254;113613;-62
2024/02/07 08:05:24;;;;;;;;;;;;;;;4.05;72.98;100042.55;107606;1254;107894;-61
2024/02/07 08:07:52;;;;;;;;;;;;;;;4.13;72.66;100044.70;107449;1254;108310;-61
2024/02/07 08:10:20;;;;;;;;;;;;;;;4.20;72.47;100048.59;107584;1251;99358;-62
2024/02/07 08:12:48;;;;;;;;;;;;;;;4.27;72.45;100044.33;107544;1251;99294;-64
2024/02/07 08:15:16;;;;;;;;;;;;;;;4.34;72.38;100049.17;107581;1251;112928;-63
2024/02/07 08:17:44;;;;;;;;;;;;;;;4.40;72.36;100046.78;107542;1254;107866;-62
2024/02/07 08:20:13;;;;;;;;;;;;;;;4.48;72.48;100048.63;107545;1251;107439;-62
2024/02/07 08:22:41;;;;;;;;;;;;;;;4.56;72.45;100044.48;107560;1254;99250;-63
2024/02/07 08:25:09;;;;;;;;;;;;;;;4.66;72.29;100042.49;107558;1254;99188;-63
2024/02/07 08:27:38;;;;;;;;;;;;;;;4.76;72.22;100039.15;107618;1256;113018;-63
2024/02/07 08:30:06;;;;;;;;;;;;;;;4.86;72.10;100042.27;107558;1251;108676;-62
2024/02/07 08:32:34;;;;;;;;;;;;;;;4.96;72.16;100038.14;107515;1251;107679;-63
2024/02/07 08:35:03;;;;;;;;;;;;;;;5.06;71.97;100037.72;107528;1254;99188;-63
2024/02/07 08:37:31;;;;;;;;;;;;;;;5.16;72.15;100036.77;107635;1254;99156;-63
2024/02/07 08:39:59;;;;;;;;;;;;;;;5.25;71.85;100032.02;107534;1253;112545;-62
2024/02/07 08:42:28;;;;;;;;;;;;;;;5.34;71.92;100037.32;107594;1254;107425;-64
2024/02/07 08:44:56;;;;;;;;;;;;;;;5.45;71.67;100043.72;107074;1253;689802;-63
2024/02/07 08:47:24;;;;;;;;;;;;;;;5.57;71.71;100041.41;107629;1254;99186;-63
2024/02/07 08:49:52;;;;;;;;;;;;;;;5.67;71.62;100040.97;107615;1254;99077;-63
2024/02/07 08:52:20;;;;;;;;;;;;;;;5.77;71.58;100044.59;107642;1254;112023;-63
2024/02/07 08:54:48;;;;;;;;;;;;;;;5.87;71.64;100044.88;107629;1256;107887;-63
2024/02/07 08:57:16;;;;;;;;;;;;;;;5.99;71.71;100043.94;107608;1256;107648;-62
2024/02/07 08:59:47;;;;;;;;;;;;;;;6.12;71.65;100042.52;107509;1254;99077;-61
2024/02/07 09:02:15;;;;;;;;;;;;;;;6.26;71.62;100040.49;107562;1254;99177;-62
2024/02/07 09:04:43;;;;;;;;;;;;;;;6.46;71.43;100033.02;107592;1257;113095;-62
2024/02/07 09:07:12;;;;;;;;;;;;;;;6.64;70.81;100033.70;107678;1254;107679;-62
2024/02/07 09:09:40;;;;;;;;;;;;;;;6.87;70.15;100034.20;107574;1255;108369;-63
2024/02/07 09:12:08;;;;;;;;;;;;;;;7.13;68.35;100030.77;107661;1254;99202;-62
2024/02/07 09:14:36;;;;;;;;;;;;;;;7.47;67.76;100027.83;107606;1254;99244;-63
2024/02/07 09:17:04;;;;;;;;;;;;;;;7.77;66.69;100015.08;107518;1253;113263;-63
2024/02/07 09:19:33;;;;;;;;;;;;;;;8.02;66.86;100015.86;107601;1254;108113;-64
2024/02/07 09:22:01;;;;;;;;;;;;;;;8.18;67.04;100008.92;107656;1255;108130;-64
2024/02/07 09:24:29;;;;;;;;;;;;;;;8.29;66.75;100003.59;107585;1254;99188;-65
2024/02/07 09:26:58;;;;;;;;;;;;;;;8.38;66.85;100002.79;107667;1253;99187;-63
2024/02/07 09:29:27;;;;;;;;;;;;;;;8.47;66.75;100004.66;107620;1254;112382;-63
2024/02/07 09:31:55;;;;;;;;;;;;;;;8.59;66.88;100000.60;107625;1251;108986;-63
2024/02/07 09:34:23;;;;;;;;;;;;;;;8.73;66.71;99997.36;107585;1251;107530;-62
2024/02/07 09:36:52;;;;;;;;;;;;;;;8.85;66.73;99995.27;107513;1254;99199;-63
2024/02/07 09:39:20;;;;;;;;;;;;;;;8.96;66.64;99994.08;107516;1251;99181;-63
2024/02/07 09:41:49;;;;;;;;;;;;;;;9.08;66.61;99987.58;107490;1251;112828;-63
2024/02/07 09:44:18;;;;;;;;;;;;;;;9.22;66.50;99984.13;107455;1254;108127;-65
2024/02/07 09:46:52;;;;;;;;;;;;;;;9.33;66.33;99981.70;107463;1254;107974;-66
2024/02/07 09:49:24;;;;;;;;;;;;;;;9.44;66.55;99976.48;107537;1251;99208;-66
2024/02/07 09:51:53;;;;;;;;;;;;;;;9.53;66.46;99973.88;107626;1251;99167;-65
2024/02/07 09:54:22;;;;;;;;;;;;;;;9.59;66.31;99968.64;107704;1250;112563;-64
2024/02/07 09:56:52;;;;;;;;;;;;;;;9.66;66.30;99969.85;107548;1251;108259;-63
2024/02/07 09:59:21;;;;;;;;;;;;;;;9.79;66.23;99967.05;107428;1250;108901;-63
2024/02/07 10:01:49;;;;;;;;;;;;;;;9.93;65.97;99971.23;107481;1251;99163;-63
2024/02/07 10:04:24;;;;;;;;;;;;;;;10.11;65.63;99970.54;107529;1251;99214;-63
2024/02/07 10:06:57;;;;;;;;;;;;;;;10.34;65.64;99965.71;107534;1254;112462;-64
2024/02/07 10:09:29;;;;;;;;;;;;;;;10.60;65.40;99960.48;107632;1254;108452;-65
2024/02/07 10:12:01;;;;;;;;;;;;;;;10.86;65.36;99963.16;107503;1251;108545;-62
2024/02/07 10:14:31;;;;;;;;;;;;;;;11.10;65.66;99959.00;107488;1251;99293;-62
2024/02/07 10:16:59;;;;;;;;;;;;;;;11.24;64.82;99957.13;107527;1251;99259;-63
2024/02/07 10:19:27;;;;;;;;;;;;;;;11.40;63.71;99954.20;107548;1251;112897;-65
2024/02/07 10:21:55;;;;;;;;;;;;;;;11.55;63.26;99951.56;107587;1251;107943;-63
2024/02/07 10:24:27;;;;;;;;;;;;;;;11.72;62.97;99943.70;107559;1251;108474;-63
2024/02/07 10:26:56;;;;;;;;;;;;;;;11.86;62.58;99946.80;107575;1251;99180;-63
2024/02/07 10:29:25;;;;;;;;;;;;;;;12.02;62.88;99941.03;107561;1251;99185;-64
2024/02/07 10:31:54;;;;;;;;;;;;;;;12.20;62.35;99937.55;107600;1251;113314;-63
2024/02/07 10:34:23;;;;;;;;;;;;;;;12.42;61.96;99933.81;107566;1251;108057;-63
2024/02/07 10:37:00;;;;;;;;;;;;;;;12.72;62.51;99924.41;107572;1251;108414;-64
2024/02/07 10:39:28;;;;;;;;;;;;;;;13.21;61.65;99919.88;107572;1251;99205;-63
2024/02/07 10:42:00;;;;;;;;;;;;;;;13.85;60.86;99916.73;107597;1254;99313;-62
2024/02/07 10:44:28;;;;;;;;;;;;;;;14.43;59.42;99910.36;107703;1251;112710;-62
2024/02/07 10:46:59;;;;;;;;;;;;;;;15.05;59.65;99899.55;107597;1251;111141;-63
2024/02/07 10:49:28;;;;;;;;;;;;;;;15.70;58.50;99891.47;107589;1251;108413;-63
2024/02/07 10:51:56;;;;;;;;;;;;;;;16.38;57.23;99889.65;107532;1251;99663;-63
2024/02/07 10:54:26;;;;;;;;;;;;;;;17.07;54.77;99886.96;107692;1251;99073;-63
2024/02/07 10:56:56;;;;;;;;;;;;;;;17.81;53.76;99891.09;107638;1251;111209;-63
2024/02/07 10:59:25;;;;;;;;;;;;;;;18.66;53.30;99882.95;107680;1250;106995;-63
2024/02/07 11:01:54;;;;;;;;;;;;;;;19.43;48.21;99881.64;107578;1250;108572;-64
2024/02/07 11:04:22;;;;;;;;;;;;;;;19.94;40.05;99880.34;107605;1254;99258;-63
2024/02/07 11:06:54;;;;;;;;;;;;;;;20.62;37.51;99878.02;107607;1251;99310;-64
2024/02/07 11:09:22;;;;;;;;;;;;;;;21.02;37.43;99876.13;107570;1251;112728;-65
2024/02/07 11:11:51;;;;;;;;;;;;;;;21.35;33.44;99872.95;107612;1254;107120;-64
2024/02/07 11:14:20;;;;;;;;;;;;;;;21.49;29.64;99873.77;107527;1254;107970;-65
2024/02/07 11:16:48;;;;;;;;;;;;;;;21.66;29.65;99872.61;107610;1251;99241;-64
2024/02/07 11:19:16;;;;;;;;;;;;;;;21.82;26.53;99870.77;107618;1254;99168;-64
2024/02/07 11:21:45;;;;;;;;;;;;;;;21.62;27.44;99864.58;107588;1251;113949;-64
2024/02/07 11:24:15;;;;;;;;;;;;;;;21.68;28.82;99860.63;107583;1254;108000;-65
2024/02/07 11:26:43;;;;;;;;;;;;;;;22.01;28.13;99861.89;107631;1254;108269;-64
2024/02/07 11:29:11;;;;;;;;;;;;;;;22.02;28.06;99852.05;107595;1251;99251;-62
2024/02/07 11:31:43;;;;;;;;;;;;;;;22.18;27.97;99853.46;107576;1251;99189;-62
2024/02/07 11:34:11;;;;;;;;;;;;;;;22.20;25.76;99848.70;107686;1250;113227;-62
2024/02/07 11:36:40;;;;;;;;;;;;;;;21.77;26.94;99843.25;107559;1251;108332;-62
2024/02/07 11:39:13;;;;;;;;;;;;;;;21.64;27.47;99836.82;107599;1254;108219;-62
2024/02/07 11:41:45;;;;;;;;;;;;;;;21.28;27.91;99831.17;107512;1251;100451;-62
2024/02/07 11:44:15;;;;;;;;;;;;;;;20.91;27.09;99827.58;107617;1251;99270;-63
2024/02/07 11:46:54;;;;;;;;;;;;;;;20.27;27.62;99823.13;107640;1251;115027;-62
2024/02/07 11:49:29;;;;;;;;;;;;;;;19.62;28.33;99822.04;107660;1250;108823;-62
2024/02/07 11:51:58;;;;;;;;;;;;;;;19.18;28.55;99823.56;107587;1251;106781;-63
2024/02/07 11:54:37;;;;;;;;;;;;;;;18.88;28.48;99826.05;107562;1254;99169;-61
2024/02/07 11:57:05;;;;;;;;;;;;;;;18.43;29.21;99823.48;107548;1251;99112;-63
2024/02/07 11:59:33;;;;;;;;;;;;;;;18.05;29.19;99815.59;107605;1251;113213;-62
2024/02/07 12:02:02;;;;;;;;;;;;;;;17.79;29.43;99813.66;107542;1254;108954;-62
2024/02/07 12:04:38;;;;;;;;;;;;;;;17.50;29.94;99807.99;107636;1251;107976;-62
2024/02/07 12:07:07;;;;;;;;;;;;;;;17.26;30.13;99805.62;107615;1253;99175;-62
2024/02/07 12:09:37;;;;;;;;;;;;;;;16.93;31.21;99808.95;107634;1251;99291;-63
2024/02/07 12:12:11;;;;;;;;;;;;;;;16.60;31.18;99813.72;107449;1251;112927;-63
2024/02/07 12:14:40;;;;;;;;;;;;;;;16.35;31.45;99811.01;107483;1250;108104;-62
2024/02/07 12:17:09;;;;;;;;;;;;;;;16.11;31.71;99813.48;107539;1254;108354;-63
2024/02/07 12:19:41;;;;;;;;;;;;;;;15.95;31.88;99800.85;107634;1251;99327;-63
2024/02/07 12:22:17;;;;;;;;;;;;;;;15.80;32.51;99806.33;107503;1251;99255;-65
2024/02/07 12:24:45;;;;;;;;;;;;;;;15.62;32.80;99791.91;107633;1250;113770;-63
2024/02/07 12:27:15;;;;;;;;;;;;;;;15.58;33.02;99792.46;107552;1251;109179;-62
2024/02/07 12:29:51;;;;;;;;;;;;;;;15.53;33.00;99789.52;107450;1251;108250;-63
2024/02/07 12:32:19;;;;;;;;;;;;;;;15.42;33.48;99783.83;107500;1251;99675;-63
2024/02/07 12:34:48;;;;;;;;;;;;;;;15.37;33.88;99781.06;107550;1250;99163;-63
2024/02/07 12:37:17;;;;;;;;;;;;;;;15.34;33.65;99776.66;107508;1251;113418;-62
2024/02/07 12:39:49;;;;;;;;;;;;;;;15.31;33.51;99776.92;107490;1251;108078;-62
2024/02/07 12:42:21;;;;;;;;;;;;;;;15.27;33.64;99777.95;107531;1251;107724;-61
2024/02/07 12:44:50;;;;;;;;;;;;;;;15.23;33.73;99777.70;107488;1251;99179;-62
2024/02/07 12:47:23;;;;;;;;;;;;;;;15.19;33.66;99783.56;107557;1251;99188;-62
2024/02/07 12:49:52;;;;;;;;;;;;;;;15.05;34.14;99780.80;107617;1254;112183;-62
2024/02/07 12:52:20;;;;;;;;;;;;;;;15.01;34.13;99778.87;107502;1251;108933;-62
2024/02/07 12:54:50;;;;;;;;;;;;;;;14.98;34.55;99785.00;107484;1251;107843;-62
2024/02/07 12:57:20;;;;;;;;;;;;;;;14.98;34.51;99789.20;107454;1250;99165;-63
2024/02/07 12:59:48;;;;;;;;;;;;;;;14.99;34.30;99788.92;107540;1251;99249;-63
2024/02/07 13:02:17;;;;;;;;;;;;;;;14.96;34.46;99788.52;107618;1251;112818;-62
2024/02/07 13:04:45;;;;;;;;;;;;;;;14.91;34.68;99787.30;107532;1251;107748;-62
2024/02/07 13:07:15;;;;;;;;;;;;;;;14.88;34.98;99785.83;107498;1254;107678;-63
2024/02/07 13:09:44;;;;;;;;;;;;;;;14.87;34.72;99788.98;107497;1251;99192;-64
2024/02/07 13:12:13;;;;;;;;;;;;;;;14.81;35.34;99791.15;107466;1251;99188;-62
2024/02/07 13:14:58;;;;;;;;;;;;;;;14.73;35.44;99800.41;107587;1251;113652;-65
2024/02/07 13:17:27;;;;;;;;;;;;;;;14.57;35.63;99803.13;107646;1251;108107;-62
2024/02/07 13:19:55;;;;;;;;;;;;;;;14.41;35.64;99806.11;107527;1254;107465;-63
2024/02/07 13:22:23;;;;;;;;;;;;;;;14.30;35.99;99808.92;107473;1251;99201;-63
2024/02/07 13:24:51;;;;;;;;;;;;;;;14.21;36.31;99809.11;107556;1254;99039;-63
2024/02/07 13:27:19;;;;;;;;;;;;;;;14.15;36.72;99810.55;107564;1251;112999;-63
2024/02/07 13:29:47;;;;;;;;;;;;;;;14.10;36.71;99810.77;107535;1250;107625;-62
2024/02/07 13:32:21;;;;;;;;;;;;;;;14.06;36.52;99809.92;107401;1251;108094;-62
2024/02/07 13:34:50;;;;;;;;;;;;;;;14.04;36.58;99817.61;107548;1251;99183;-63
2024/02/07 13:37:18;;;;;;;;;;;;;;;14.02;36.75;99813.14;107480;1251;99300;-63
2024/02/07 13:39:47;;;;;;;;;;;;;;;14.00;36.41;99811.59;107541;1251;113392;-63
2024/02/07 13:42:15;;;;;;;;;;;;;;;13.98;36.38;99813.91;107487;1251;108485;-62
2024/02/07 13:44:46;;;;;;;;;;;;;;;13.97;36.49;99811.77;107542;1251;108252;-64
2024/02/07 13:47:15;;;;;;;;;;;;;;;13.93;36.72;99811.62;107504;1251;99187;-62
2024/02/07 13:49:43;;;;;;;;;;;;;;;13.90;36.51;99808.45;107635;1251;99077;-63